createdAt,value
2023-05-08T00:01:17.591Z,17.80
2023-05-08T00:03:44.363Z,17.70
2023-05-08T00:06:11.062Z,17.70
2023-05-08T00:08:37.691Z,17.50
2023-05-08T00:11:04.250Z,17.60
2023-05-08T00:13:30.751Z,17.60
2023-05-08T00:15:57.286Z,17.50
2023-05-08T00:18:23.875Z,17.50
2023-05-08T00:20:50.428Z,17.50
2023-05-08T00:23:16.950Z,17.50
2023-05-08T00:25:43.472Z,17.50
2023-05-08T00:28:10.019Z,17.50
2023-05-08T00:30:36.794Z,17.50
2023-05-08T00:33:03.403Z,17.50
2023-05-08T00:35:29.950Z,17.50
2023-05-08T00:37:56.500Z,17.50
2023-05-08T00:40:23.048Z,17.50
2023-05-08T00:42:49.580Z,17.50
2023-05-08T00:45:16.106Z,17.50
2023-05-08T00:47:42.722Z,17.50
2023-05-08T00:50:10.603Z,17.50
2023-05-08T00:52:37.509Z,17.40
2023-05-08T00:55:04.766Z,17.40
2023-05-08T00:57:32.702Z,17.40
2023-05-08T01:00:00.633Z,17.30
2023-05-08T01:02:27.791Z,17.30
2023-05-08T01:04:54.783Z,17.30
2023-05-08T01:07:21.686Z,17.30
2023-05-08T01:09:48.573Z,17.30
2023-05-08T01:12:26.309Z,17.30
2023-05-08T01:15:01.167Z,17.20
2023-05-08T01:17:39.018Z,17.30
2023-05-08T01:20:08.761Z,17.20
2023-05-08T01:22:44.538Z,17.20
2023-05-08T01:25:23.799Z,17.20
2023-05-08T01:28:08.752Z,17.10
2023-05-08T01:30:59.620Z,17.10
2023-05-08T01:33:38.824Z,17.10
2023-05-08T01:36:11.382Z,17.00
2023-05-08T01:38:47.663Z,17.10
2023-05-08T01:41:25.112Z,17.10
2023-05-08T01:43:53.551Z,17.00
2023-05-08T01:46:22.699Z,17.00
2023-05-08T01:49:07.892Z,17.00
2023-05-08T01:51:43.620Z,17.00
2023-05-08T01:54:14.702Z,17.10
2023-05-08T01:56:43.010Z,17.00
2023-05-08T01:59:10.497Z,17.10
2023-05-08T02:01:37.047Z,17.00
2023-05-08T02:04:06.355Z,16.90
2023-05-08T02:06:33.326Z,16.90
2023-05-08T02:09:00.727Z,16.90
2023-05-08T02:11:28.900Z,16.80
2023-05-08T02:13:57.749Z,16.80
2023-05-08T02:16:24.875Z,16.80
2023-05-08T02:18:52.449Z,16.70
2023-05-08T02:21:19.727Z,16.70
2023-05-08T02:23:46.925Z,16.70
2023-05-08T02:26:16.759Z,16.60
2023-05-08T02:28:43.794Z,16.60
2023-05-08T02:31:11.374Z,16.60
2023-05-08T02:33:41.710Z,16.50
2023-05-08T02:36:08.716Z,16.50
2023-05-08T02:38:37.514Z,16.50
2023-05-08T02:41:05.839Z,16.40
2023-05-08T02:43:32.558Z,16.40
2023-05-08T02:46:16.972Z,16.40
2023-05-08T02:48:50.992Z,16.40
2023-05-08T02:51:17.529Z,16.30
2023-05-08T02:53:51.188Z,16.30
2023-05-08T02:56:36.117Z,16.30
2023-05-08T02:59:17.538Z,16.20
2023-05-08T03:01:47.100Z,16.20
2023-05-08T03:04:19.635Z,16.20
2023-05-08T03:06:47.636Z,16.20
2023-05-08T03:09:19.336Z,16.20
2023-05-08T03:11:48.529Z,16.20
2023-05-08T03:14:16.932Z,16.10
2023-05-08T03:16:44.847Z,16.10
2023-05-08T03:19:15.872Z,16.00
2023-05-08T03:21:44.053Z,16.00
2023-05-08T03:24:11.174Z,16.00
2023-05-08T03:26:37.737Z,15.90
2023-05-08T03:29:05.789Z,15.90
2023-05-08T03:31:32.948Z,15.80
2023-05-08T03:33:59.976Z,15.80
2023-05-08T03:36:27.043Z,15.80
2023-05-08T03:38:53.654Z,15.70
2023-05-08T03:41:20.272Z,15.70
2023-05-08T03:43:47.228Z,15.60
2023-05-08T03:46:14.199Z,15.50
2023-05-08T03:48:41.165Z,15.50
2023-05-08T03:51:07.754Z,15.50
2023-05-08T03:53:34.331Z,15.30
2023-05-08T03:56:01.889Z,15.30
2023-05-08T03:58:34.729Z,15.20
2023-05-08T04:01:09.018Z,15.20
2023-05-08T04:03:38.483Z,15.20
2023-05-08T04:06:30.742Z,15.10
2023-05-08T04:09:05.502Z,15.00
2023-05-08T04:11:38.235Z,14.90
2023-05-08T04:14:07.585Z,14.90
2023-05-08T04:16:43.180Z,14.90
2023-05-08T04:19:11.938Z,14.80
2023-05-08T04:21:42.147Z,14.80
2023-05-08T04:24:10.090Z,14.90
2023-05-08T04:26:37.142Z,14.80
2023-05-08T04:29:04.431Z,14.90
2023-05-08T04:31:31.141Z,14.90
2023-05-08T04:33:58.062Z,14.90
2023-05-08T04:36:25.481Z,14.80
2023-05-08T04:38:52.000Z,14.90
2023-05-08T04:41:18.544Z,14.80
2023-05-08T04:43:45.203Z,14.80
2023-05-08T04:46:11.788Z,14.90
2023-05-08T04:48:38.424Z,15.00
2023-05-08T04:51:04.977Z,15.00
2023-05-08T04:53:31.521Z,15.00
2023-05-08T04:55:58.532Z,15.00
2023-05-08T04:58:25.073Z,15.00
2023-05-08T05:00:51.687Z,15.00
2023-05-08T05:03:18.286Z,15.10
2023-05-08T05:05:44.826Z,15.10
2023-05-08T05:08:11.334Z,15.10
2023-05-08T05:10:38.340Z,15.10
2023-05-08T05:13:04.893Z,15.20
2023-05-08T05:15:31.458Z,15.20
2023-05-08T05:17:58.019Z,15.10
2023-05-08T05:20:24.605Z,15.20
2023-05-08T05:22:51.132Z,15.20
2023-05-08T05:25:17.660Z,15.20
2023-05-08T05:27:44.235Z,15.30
2023-05-08T05:30:11.099Z,15.30
2023-05-08T05:32:37.865Z,15.40
2023-05-08T05:35:04.607Z,15.50
2023-05-08T05:37:31.120Z,15.40
2023-05-08T05:39:57.667Z,15.50
2023-05-08T05:42:24.303Z,15.50
2023-05-08T05:44:50.841Z,15.70
2023-05-08T05:47:17.427Z,15.70
2023-05-08T05:49:46.898Z,15.70
2023-05-08T05:52:13.843Z,15.80
2023-05-08T05:54:41.439Z,15.80
2023-05-08T05:57:08.062Z,15.90
2023-05-08T05:59:34.841Z,16.00
2023-05-08T06:02:01.588Z,15.90
2023-05-08T06:04:28.210Z,16.00
2023-05-08T06:06:54.855Z,16.00
2023-05-08T06:09:21.562Z,16.00
2023-05-08T06:11:48.083Z,16.00
2023-05-08T06:14:14.626Z,15.90
2023-05-08T06:16:41.208Z,15.90
2023-05-08T06:19:07.864Z,15.90
2023-05-08T06:21:34.544Z,15.80
2023-05-08T06:24:01.421Z,15.80
2023-05-08T06:26:27.953Z,15.80
2023-05-08T06:28:54.503Z,15.80
2023-05-08T06:31:21.126Z,15.80
2023-05-08T06:33:47.669Z,15.80
2023-05-08T06:36:14.190Z,15.80
2023-05-08T06:38:40.758Z,15.80
2023-05-08T06:41:07.406Z,15.80
2023-05-08T06:43:33.955Z,15.80
2023-05-08T06:46:00.720Z,15.90
2023-05-08T06:48:29.040Z,15.90
2023-05-08T06:50:56.354Z,16.00
2023-05-08T06:53:23.348Z,16.10
2023-05-08T06:55:49.897Z,16.10
2023-05-08T06:58:16.453Z,16.20
2023-05-08T07:00:43.028Z,16.20
2023-05-08T07:03:09.709Z,16.30
2023-05-08T07:05:36.392Z,16.30
2023-05-08T07:08:02.957Z,16.40
2023-05-08T07:10:29.611Z,16.50
2023-05-08T07:12:56.264Z,16.60
2023-05-08T07:15:26.589Z,16.70
2023-05-08T07:17:54.036Z,16.70
2023-05-08T07:20:21.409Z,16.80
2023-05-08T07:22:48.196Z,17.00
2023-05-08T07:25:15.003Z,17.10
2023-05-08T07:27:42.101Z,17.20
2023-05-08T07:30:08.860Z,17.30
2023-05-08T07:32:35.510Z,17.30
2023-05-08T07:35:02.822Z,17.30
2023-05-08T07:37:29.430Z,17.30
2023-05-08T07:39:56.020Z,17.30
2023-05-08T07:42:22.658Z,17.30
2023-05-08T07:44:54.739Z,17.30
2023-05-08T07:47:22.076Z,17.40
2023-05-08T07:49:48.629Z,17.50
2023-05-08T07:52:15.153Z,17.50
2023-05-08T07:54:41.708Z,17.60
2023-05-08T07:57:08.211Z,17.60
2023-05-08T07:59:34.728Z,17.70
2023-05-08T08:02:01.345Z,17.70
2023-05-08T08:04:28.089Z,17.80
2023-05-08T08:06:55.178Z,17.80
2023-05-08T08:09:21.765Z,17.80
2023-05-08T08:11:48.300Z,17.90
2023-05-08T08:14:14.839Z,17.90
2023-05-08T08:16:42.838Z,18.00
2023-05-08T08:19:10.617Z,18.00
2023-05-08T08:21:41.649Z,18.00
2023-05-08T08:24:08.412Z,18.00
2023-05-08T08:26:35.389Z,18.00
2023-05-08T08:29:02.138Z,18.00
2023-05-08T08:31:28.776Z,18.00
2023-05-08T08:33:55.366Z,18.10
2023-05-08T08:36:21.897Z,18.10
2023-05-08T08:38:48.437Z,18.10
2023-05-08T08:41:15.605Z,18.20
2023-05-08T08:43:45.187Z,18.20
2023-05-08T08:46:15.655Z,18.20
2023-05-08T08:48:43.830Z,18.10
2023-05-08T08:51:14.364Z,18.10
2023-05-08T08:53:43.068Z,18.10
2023-05-08T08:56:11.603Z,18.00
2023-05-08T08:58:43.361Z,18.00
2023-05-08T09:01:15.072Z,18.00
2023-05-08T09:03:41.766Z,18.00
2023-05-08T09:06:08.640Z,18.10
2023-05-08T09:08:35.268Z,18.10
2023-05-08T09:11:02.232Z,18.10
2023-05-08T09:13:29.213Z,18.10
2023-05-08T09:15:57.558Z,18.00
2023-05-08T09:18:24.150Z,18.00
2023-05-08T09:20:51.188Z,17.90
2023-05-08T09:23:18.074Z,18.00
2023-05-08T09:25:45.489Z,18.00
2023-05-08T09:28:19.229Z,18.00
2023-05-08T09:31:03.931Z,18.00
2023-05-08T09:33:30.711Z,17.90
2023-05-08T09:35:57.420Z,17.90
2023-05-08T09:38:34.408Z,18.00
2023-05-08T09:41:11.580Z,17.90
2023-05-08T09:43:38.466Z,17.90
2023-05-08T09:46:23.347Z,17.90
2023-05-08T09:48:50.801Z,17.90
2023-05-08T09:51:17.464Z,17.90
2023-05-08T09:53:44.429Z,18.00
2023-05-08T09:56:11.110Z,18.00
2023-05-08T09:58:40.549Z,18.00
2023-05-08T10:01:07.710Z,18.00
2023-05-08T10:04:04.111Z,17.90
2023-05-08T10:06:30.804Z,17.80
2023-05-08T10:09:07.230Z,17.80
2023-05-08T10:11:33.915Z,17.80
2023-05-08T10:14:01.116Z,17.80
2023-05-08T10:16:28.952Z,17.80
2023-05-08T10:19:00.717Z,17.80
2023-05-08T10:21:29.062Z,17.90
2023-05-08T10:23:57.005Z,17.90
2023-05-08T10:26:27.175Z,17.90
2023-05-08T10:28:57.866Z,17.90
2023-05-08T10:31:34.065Z,17.80
2023-05-08T10:34:01.871Z,17.90
2023-05-08T10:36:30.908Z,17.90
2023-05-08T10:38:58.087Z,18.00
2023-05-08T10:41:25.912Z,18.10
2023-05-08T10:43:53.109Z,18.20
2023-05-08T10:46:25.743Z,18.30
2023-05-08T10:48:56.286Z,18.30
2023-05-08T10:51:41.732Z,18.30
2023-05-08T10:54:19.447Z,18.40
2023-05-08T10:56:46.099Z,18.40
2023-05-08T10:59:23.599Z,18.50
2023-05-08T11:01:50.568Z,18.50
2023-05-08T11:04:21.688Z,18.50
2023-05-08T11:06:52.616Z,18.50
2023-05-08T11:09:23.419Z,18.50
2023-05-08T11:11:52.450Z,18.60
2023-05-08T11:14:19.555Z,18.60
2023-05-08T11:16:56.377Z,18.70
2023-05-08T11:19:26.876Z,18.70
2023-05-08T11:22:12.220Z,18.80
2023-05-08T11:24:39.463Z,18.90
2023-05-08T11:27:05.991Z,18.90
2023-05-08T11:29:32.540Z,18.90
2023-05-08T11:31:59.116Z,19.10
2023-05-08T11:34:55.428Z,19.10
2023-05-08T11:37:23.978Z,19.20
2023-05-08T11:39:50.551Z,19.20
2023-05-08T11:42:26.895Z,19.30
2023-05-08T11:45:03.249Z,19.40
2023-05-08T11:47:39.877Z,19.50
2023-05-08T11:50:07.563Z,19.60
2023-05-08T11:52:35.791Z,19.70
2023-05-08T11:55:06.772Z,19.80
2023-05-08T11:57:33.402Z,19.80
2023-05-08T12:00:09.871Z,19.90
2023-05-08T12:02:43.762Z,20.00
2023-05-08T12:05:11.109Z,20.00
2023-05-08T12:07:46.374Z,20.00
2023-05-08T12:10:13.764Z,20.00
2023-05-08T12:12:41.506Z,20.00
2023-05-08T12:15:09.354Z,20.00
2023-05-08T12:17:36.252Z,20.00
2023-05-08T12:20:16.867Z,20.00
2023-05-08T12:22:49.936Z,20.00
2023-05-08T12:25:16.773Z,20.00
2023-05-08T12:27:43.735Z,20.10
2023-05-08T12:30:11.934Z,20.10
2023-05-08T12:32:40.053Z,20.20
2023-05-08T12:35:07.395Z,20.30
2023-05-08T12:37:34.038Z,20.30
2023-05-08T12:40:00.748Z,20.30
2023-05-08T12:42:46.274Z,20.40
2023-05-08T12:45:17.261Z,20.50
2023-05-08T12:47:47.379Z,20.50
2023-05-08T12:50:18.540Z,20.50
2023-05-08T12:52:45.125Z,20.40
2023-05-08T12:55:21.960Z,20.40
2023-05-08T12:57:49.379Z,20.30
2023-05-08T13:00:17.229Z,20.30
2023-05-08T13:02:56.333Z,20.30
2023-05-08T13:05:23.312Z,20.20
2023-05-08T13:07:50.276Z,20.20
2023-05-08T13:10:19.644Z,20.20
2023-05-08T13:12:47.401Z,20.10
2023-05-08T13:15:14.181Z,20.10
2023-05-08T13:17:40.972Z,20.00
2023-05-08T13:20:07.943Z,20.00
2023-05-08T13:22:34.471Z,20.10
2023-05-08T13:25:01.150Z,20.10
2023-05-08T13:27:28.265Z,20.20
2023-05-08T13:29:54.859Z,20.20
2023-05-08T13:32:21.490Z,20.30
2023-05-08T13:34:51.129Z,20.40
2023-05-08T13:37:19.833Z,20.40
2023-05-08T13:39:46.580Z,20.40
2023-05-08T13:42:13.096Z,20.40
2023-05-08T13:44:39.649Z,20.50
2023-05-08T13:47:06.167Z,20.50
2023-05-08T13:49:32.740Z,20.50
2023-05-08T13:51:59.261Z,20.50
2023-05-08T13:54:25.797Z,20.50
2023-05-08T13:56:53.832Z,20.50
2023-05-08T13:59:20.377Z,20.40
2023-05-08T14:01:46.962Z,20.40
2023-05-08T14:04:13.709Z,20.50
2023-05-08T14:06:40.429Z,20.40
2023-05-08T14:09:06.990Z,20.40
2023-05-08T14:11:33.525Z,20.50
2023-05-08T14:14:00.125Z,20.50
2023-05-08T14:16:26.688Z,20.60
2023-05-08T14:18:53.279Z,20.60
2023-05-08T14:21:19.879Z,20.70
2023-05-08T14:23:46.546Z,20.80
2023-05-08T14:26:13.092Z,20.80
2023-05-08T14:28:39.609Z,20.90
2023-05-08T14:31:06.356Z,20.90
2023-05-08T14:33:32.953Z,20.90
2023-05-08T14:35:59.494Z,20.90
2023-05-08T14:38:26.055Z,20.80
2023-05-08T14:40:54.331Z,20.70
2023-05-08T14:43:21.445Z,20.60
2023-05-08T14:45:48.163Z,20.50
2023-05-08T14:48:15.090Z,20.50
2023-05-08T14:50:42.201Z,20.40
2023-05-08T14:53:08.809Z,20.40
2023-05-08T14:55:35.948Z,20.30
2023-05-08T14:58:02.803Z,20.30
2023-05-08T15:00:29.346Z,20.30
2023-05-08T15:02:56.355Z,20.30
2023-05-08T15:05:23.267Z,20.20
2023-05-08T15:07:50.193Z,20.10
2023-05-08T15:10:16.772Z,20.10
2023-05-08T15:12:43.381Z,20.10
2023-05-08T15:15:10.319Z,20.10
2023-05-08T15:17:36.980Z,20.10
2023-05-08T15:20:03.785Z,20.10
2023-05-08T15:22:30.384Z,20.10
2023-05-08T15:25:02.080Z,20.10
2023-05-08T15:27:29.220Z,20.10
2023-05-08T15:29:56.047Z,20.10
2023-05-08T15:32:22.636Z,20.10
2023-05-08T15:34:49.209Z,20.10
2023-05-08T15:37:15.749Z,20.20
2023-05-08T15:39:43.247Z,20.20
2023-05-08T15:42:09.851Z,20.20
2023-05-08T15:47:05.855Z,20.20
2023-05-08T15:49:32.409Z,20.10
2023-05-08T15:51:58.913Z,20.00
2023-05-08T15:54:25.435Z,20.00
2023-05-08T15:56:51.952Z,20.00
2023-05-08T15:59:18.493Z,20.10
2023-05-08T16:01:46.776Z,20.10
2023-05-08T16:04:13.592Z,20.10
2023-05-08T16:06:40.115Z,20.10
2023-05-08T16:09:06.628Z,20.00
2023-05-08T16:11:33.305Z,20.00
2023-05-08T16:13:59.872Z,20.00
2023-05-08T16:16:26.476Z,20.00
2023-05-08T16:18:53.102Z,20.00
2023-05-08T16:21:19.728Z,20.10
2023-05-08T16:23:46.300Z,20.20
2023-05-08T16:26:13.991Z,20.20
2023-05-08T16:28:40.637Z,20.20
2023-05-08T16:31:07.661Z,20.30
2023-05-08T16:33:34.238Z,20.30
2023-05-08T16:36:00.879Z,20.30
2023-05-08T16:38:27.409Z,20.30
2023-05-08T16:40:53.956Z,20.30
2023-05-08T16:43:20.565Z,20.30
2023-05-08T16:45:49.888Z,20.30
2023-05-08T16:48:16.933Z,20.30
2023-05-08T16:50:43.455Z,20.30
2023-05-08T16:53:10.324Z,20.30
2023-05-08T16:55:36.884Z,20.20
2023-05-08T16:58:04.569Z,20.20
2023-05-08T17:00:31.193Z,20.20
2023-05-08T17:02:57.847Z,20.20
2023-05-08T17:05:24.492Z,20.20
2023-05-08T17:07:51.066Z,20.20
2023-05-08T17:10:17.764Z,20.20
2023-05-08T17:12:44.402Z,20.20
2023-05-08T17:15:11.391Z,20.10
2023-05-08T17:17:38.117Z,20.10
2023-05-08T17:20:04.949Z,20.10
2023-05-08T17:22:31.470Z,20.00
2023-05-08T17:24:58.028Z,20.00
2023-05-08T17:27:24.617Z,20.00
2023-05-08T17:29:51.141Z,20.00
2023-05-08T17:32:17.676Z,20.00
2023-05-08T17:34:44.272Z,19.90
2023-05-08T17:37:11.728Z,19.90
2023-05-08T17:39:38.284Z,19.90
2023-05-08T17:42:04.862Z,19.80
2023-05-08T17:44:31.403Z,19.80
2023-05-08T17:46:57.933Z,19.80
2023-05-08T17:49:24.461Z,19.80
2023-05-08T17:51:51.084Z,19.80
2023-05-08T17:54:17.648Z,19.70
2023-05-08T17:56:44.614Z,19.70
2023-05-08T17:59:11.141Z,19.70
2023-05-08T18:01:37.728Z,19.70
2023-05-08T18:04:04.453Z,19.70
2023-05-08T18:06:31.043Z,19.70
2023-05-08T18:08:57.598Z,19.70
2023-05-08T18:11:25.004Z,19.70
2023-05-08T18:13:54.645Z,19.60
2023-05-08T18:16:22.132Z,19.60
2023-05-08T18:18:49.456Z,19.60
2023-05-08T18:21:16.128Z,19.50
2023-05-08T18:23:42.757Z,19.50
2023-05-08T18:26:13.064Z,19.50
2023-05-08T18:28:39.573Z,19.40
2023-05-08T18:31:06.184Z,19.40
2023-05-08T18:33:32.788Z,19.50
2023-05-08T18:35:59.429Z,19.40
2023-05-08T18:38:25.965Z,19.30
2023-05-08T18:40:52.500Z,19.30
2023-05-08T18:43:19.050Z,19.30
2023-05-08T18:45:45.692Z,19.30
2023-05-08T18:48:12.642Z,19.20
2023-05-08T18:50:39.166Z,19.20
2023-05-08T18:53:06.363Z,19.20
2023-05-08T18:55:32.926Z,19.10
2023-05-08T18:57:59.458Z,19.00
2023-05-08T19:00:26.102Z,19.00
2023-05-08T19:02:52.736Z,19.00
2023-05-08T19:05:19.458Z,19.00
2023-05-08T19:07:46.021Z,18.90
2023-05-08T19:10:13.150Z,18.90
2023-05-08T19:12:40.059Z,18.80
2023-05-08T19:15:08.863Z,18.80
2023-05-08T19:17:36.691Z,18.80
2023-05-08T19:20:04.088Z,18.70
2023-05-08T19:22:31.076Z,18.70
2023-05-08T19:24:57.592Z,18.60
2023-05-08T19:27:24.146Z,18.50
2023-05-08T19:29:50.708Z,18.40
2023-05-08T19:32:17.235Z,18.30
2023-05-08T19:34:43.747Z,18.30
2023-05-08T19:37:10.631Z,18.20
2023-05-08T19:39:37.153Z,18.20
2023-05-08T19:42:03.975Z,18.10
2023-05-08T19:44:32.540Z,18.10
2023-05-08T19:46:59.433Z,18.00
2023-05-08T19:49:26.672Z,18.00
2023-05-08T19:51:53.177Z,18.00
2023-05-08T19:54:19.683Z,18.00
2023-05-08T19:56:46.192Z,17.90
2023-05-08T19:59:12.707Z,17.90
2023-05-08T20:01:39.412Z,17.90
2023-05-08T20:04:06.130Z,17.80
2023-05-08T20:06:32.834Z,17.90
2023-05-08T20:08:59.353Z,17.80
2023-05-08T20:11:26.043Z,17.80
2023-05-08T20:13:52.568Z,17.80
2023-05-08T20:16:19.153Z,17.70
2023-05-08T20:18:46.199Z,17.70
2023-05-08T20:21:12.700Z,17.60
2023-05-08T20:23:40.246Z,17.60
2023-05-08T20:26:08.416Z,17.50
2023-05-08T20:28:35.210Z,17.50
2023-05-08T20:31:02.154Z,17.40
2023-05-08T20:33:28.961Z,17.40
2023-05-08T20:35:55.578Z,17.40
2023-05-08T20:38:22.127Z,17.40
2023-05-08T20:40:48.708Z,17.40
2023-05-08T20:43:16.802Z,17.40
2023-05-08T20:45:43.411Z,17.40
2023-05-08T20:48:10.026Z,17.40
2023-05-08T20:50:36.735Z,17.40
2023-05-08T20:53:03.302Z,17.30
2023-05-08T20:55:29.819Z,17.30
2023-05-08T20:57:56.367Z,17.30
2023-05-08T21:00:22.919Z,17.30
2023-05-08T21:02:49.533Z,17.30
2023-05-08T21:05:16.536Z,17.30
2023-05-08T21:07:43.263Z,17.30
2023-05-08T21:10:09.980Z,17.30
2023-05-08T21:12:36.549Z,17.30
2023-05-08T21:15:03.148Z,17.30
2023-05-08T21:17:29.675Z,17.30
2023-05-08T21:19:56.991Z,17.30
2023-05-08T21:22:23.568Z,17.30
2023-05-08T21:24:50.160Z,17.20
2023-05-08T21:27:16.730Z,17.30
2023-05-08T21:29:43.249Z,17.20
2023-05-08T21:32:10.367Z,17.20
2023-05-08T21:34:37.105Z,17.20
2023-05-08T21:37:03.749Z,17.10
2023-05-08T21:39:30.312Z,17.20
2023-05-08T21:41:56.912Z,17.20
2023-05-08T21:44:23.425Z,17.20
2023-05-08T21:46:50.005Z,17.10
2023-05-08T21:49:16.789Z,17.20
2023-05-08T21:51:45.470Z,17.20
2023-05-08T21:54:12.004Z,17.20
2023-05-08T21:56:38.784Z,17.20
2023-05-08T21:59:05.385Z,17.20
2023-05-08T22:01:32.097Z,17.20
2023-05-08T22:03:58.814Z,17.20
2023-05-08T22:06:25.378Z,17.20
2023-05-08T22:08:51.894Z,17.20
2023-05-08T22:11:18.412Z,17.10
2023-05-08T22:13:44.920Z,17.20
2023-05-08T22:16:11.508Z,17.10
2023-05-08T22:18:38.052Z,17.20
2023-05-08T22:21:04.575Z,17.20
2023-05-08T22:23:32.818Z,17.20
2023-05-08T22:25:59.346Z,17.20
2023-05-08T22:28:26.422Z,17.10
2023-05-08T22:30:52.943Z,17.20
2023-05-08T22:33:19.685Z,17.20
2023-05-08T22:35:46.222Z,17.10
2023-05-08T22:38:12.753Z,17.10
2023-05-08T22:40:39.466Z,17.10
2023-05-08T22:43:06.544Z,17.10
2023-05-08T22:45:33.153Z,17.00
2023-05-08T22:47:59.778Z,17.00
2023-05-08T22:50:26.369Z,17.00
2023-05-08T22:52:52.888Z,17.00
2023-05-08T22:55:19.404Z,17.00
2023-05-08T22:57:45.913Z,16.90
2023-05-08T23:00:12.832Z,16.90
2023-05-08T23:02:39.799Z,16.90
2023-05-08T23:05:06.828Z,16.90
2023-05-08T23:07:33.392Z,16.90
2023-05-08T23:09:59.927Z,17.00
2023-05-08T23:12:26.494Z,17.00
2023-05-08T23:14:53.098Z,17.00
2023-05-08T23:17:19.608Z,16.90
2023-05-08T23:19:46.135Z,16.90
2023-05-08T23:22:12.661Z,16.80
2023-05-08T23:24:39.186Z,16.80
2023-05-08T23:27:05.715Z,16.80
2023-05-08T23:29:32.244Z,16.70
2023-05-08T23:31:59.219Z,16.70
2023-05-08T23:34:25.787Z,16.70
2023-05-08T23:36:52.302Z,16.70
2023-05-08T23:39:18.860Z,16.60
2023-05-08T23:41:45.442Z,16.60
2023-05-08T23:44:11.993Z,16.50
2023-05-08T23:46:38.546Z,16.50
2023-05-08T23:49:06.695Z,16.50
2023-05-08T23:51:33.464Z,16.40
2023-05-08T23:53:59.986Z,16.40
2023-05-08T23:56:26.921Z,16.40
2023-05-08T23:58:53.503Z,16.40
